createdAt,value
2019-05-28T00:00:14.241Z,17.27
2019-05-28T00:01:19.860Z,17.26
2019-05-28T00:02:25.081Z,17.25
2019-05-28T00:03:30.585Z,17.25
2019-05-28T00:04:38.531Z,17.23
2019-05-28T00:05:44.135Z,17.23
2019-05-28T00:06:49.830Z,17.23
2019-05-28T00:07:55.345Z,17.23
2019-05-28T00:09:00.335Z,17.21
2019-05-28T00:10:06.453Z,17.21
2019-05-28T00:11:11.814Z,17.19
2019-05-28T00:12:17.553Z,17.19
2019-05-28T00:13:22.831Z,17.18
2019-05-28T00:14:28.425Z,17.17
2019-05-28T00:15:33.378Z,17.18
2019-05-28T00:16:38.893Z,17.18
2019-05-28T00:17:43.911Z,17.21
2019-05-28T00:18:49.444Z,17.22
2019-05-28T00:19:54.438Z,17.24
2019-05-28T00:20:59.968Z,17.24
2019-05-28T00:22:05.044Z,17.25
2019-05-28T00:23:10.542Z,17.25
2019-05-28T00:24:15.699Z,17.23
2019-05-28T00:25:24.972Z,17.22
2019-05-28T00:26:28.257Z,17.21
2019-05-28T00:27:33.811Z,17.23
2019-05-28T00:28:38.806Z,17.21
2019-05-28T00:29:44.686Z,17.21
2019-05-28T00:30:49.738Z,17.23
2019-05-28T00:31:55.340Z,17.23
2019-05-28T00:33:00.323Z,17.24
2019-05-28T00:34:05.849Z,17.26
2019-05-28T00:35:11.239Z,17.27
2019-05-28T00:36:17.385Z,17.29
2019-05-28T00:37:25.903Z,17.30
2019-05-28T00:38:31.471Z,17.34
2019-05-28T00:39:36.423Z,17.35
2019-05-28T00:40:42.225Z,17.36
2019-05-28T00:41:47.408Z,17.39
2019-05-28T00:42:53.139Z,17.41
2019-05-28T00:43:58.073Z,17.41
2019-05-28T00:45:03.761Z,17.45
2019-05-28T00:46:08.813Z,17.45
2019-05-28T00:47:14.434Z,17.47
2019-05-28T00:48:19.448Z,17.49
2019-05-28T00:49:25.175Z,17.50
2019-05-28T00:50:30.232Z,17.51
2019-05-28T00:51:37.028Z,17.52
2019-05-28T00:52:42.012Z,17.52
2019-05-28T00:53:47.649Z,17.53
2019-05-28T00:54:52.907Z,17.52
2019-05-28T00:55:59.226Z,17.51
2019-05-28T00:57:04.387Z,17.50
2019-05-28T00:58:10.652Z,17.48
2019-05-28T00:59:16.340Z,17.48
2019-05-28T01:00:40.758Z,17.50
2019-05-28T01:01:46.024Z,17.51
2019-05-28T01:02:51.598Z,17.51
2019-05-28T01:03:56.804Z,17.52
2019-05-28T01:05:02.318Z,17.54
2019-05-28T01:06:07.312Z,17.54
2019-05-28T01:07:13.306Z,17.55
2019-05-28T01:08:18.294Z,17.55
2019-05-28T01:09:24.192Z,17.56
2019-05-28T01:10:29.123Z,17.57
2019-05-28T01:11:34.624Z,17.56
2019-05-28T01:12:39.941Z,17.56
2019-05-28T01:13:45.439Z,17.56
2019-05-28T01:14:50.362Z,17.55
2019-05-28T01:15:55.935Z,17.54
2019-05-28T01:17:00.924Z,17.54
2019-05-28T01:18:06.603Z,17.54
2019-05-28T01:19:11.770Z,17.53
2019-05-28T01:20:19.105Z,17.49
2019-05-28T01:21:24.084Z,17.46
2019-05-28T01:22:30.036Z,17.41
2019-05-28T01:23:35.283Z,17.38
2019-05-28T01:24:40.807Z,17.35
2019-05-28T01:25:45.705Z,17.31
2019-05-28T01:26:51.214Z,17.27
2019-05-28T01:27:56.211Z,17.24
2019-05-28T01:29:03.483Z,17.20
2019-05-28T01:30:08.875Z,17.16
2019-05-28T01:31:14.740Z,17.15
2019-05-28T01:32:20.488Z,17.14
2019-05-28T01:33:25.993Z,17.12
2019-05-28T01:34:31.221Z,17.10
2019-05-28T01:35:36.721Z,17.09
2019-05-28T01:36:41.726Z,17.04
2019-05-28T01:37:47.289Z,17.02
2019-05-28T01:38:52.199Z,17.00
2019-05-28T01:39:58.177Z,16.99
2019-05-28T01:41:03.118Z,16.99
2019-05-28T01:42:09.004Z,16.99
2019-05-28T01:43:13.913Z,17.00
2019-05-28T01:44:19.517Z,17.00
2019-05-28T01:45:24.598Z,17.02
2019-05-28T01:46:30.350Z,17.04
2019-05-28T01:47:35.413Z,17.05
2019-05-28T01:48:40.930Z,17.05
2019-05-28T01:49:45.866Z,17.07
2019-05-28T01:50:51.374Z,17.08
2019-05-28T01:51:56.294Z,17.09
2019-05-28T01:53:01.787Z,17.10
2019-05-28T01:54:06.769Z,17.12
2019-05-28T01:55:12.865Z,17.12
2019-05-28T01:56:17.948Z,17.14
2019-05-28T01:57:23.482Z,17.14
2019-05-28T01:58:28.402Z,17.16
2019-05-28T01:59:33.942Z,17.15
2019-05-28T02:00:38.993Z,17.16
2019-05-28T02:01:44.491Z,17.17
2019-05-28T02:02:49.814Z,17.16
2019-05-28T02:03:55.458Z,17.16
2019-05-28T02:05:00.731Z,17.17
2019-05-28T02:06:06.658Z,17.19
2019-05-28T02:07:11.623Z,17.19
2019-05-28T02:08:17.447Z,17.21
2019-05-28T02:09:22.489Z,17.23
2019-05-28T02:10:28.315Z,17.24
2019-05-28T02:11:33.735Z,17.25
2019-05-28T02:12:39.247Z,17.27
2019-05-28T02:13:44.264Z,17.27
2019-05-28T02:14:49.778Z,17.27
2019-05-28T02:15:56.154Z,17.29
2019-05-28T02:17:01.690Z,17.30
2019-05-28T02:18:06.724Z,17.33
2019-05-28T02:19:12.301Z,17.35
2019-05-28T02:20:17.389Z,17.36
2019-05-28T02:21:22.953Z,17.37
2019-05-28T02:22:27.917Z,17.38
2019-05-28T02:23:33.532Z,17.39
2019-05-28T02:24:38.936Z,17.40
2019-05-28T02:25:44.560Z,17.41
2019-05-28T02:26:49.488Z,17.41
2019-05-28T02:27:55.024Z,17.39
2019-05-28T02:28:59.935Z,17.39
2019-05-28T02:30:07.324Z,17.38
2019-05-28T02:31:25.024Z,17.37
2019-05-28T02:32:19.815Z,17.35
2019-05-28T02:33:24.760Z,17.34
2019-05-28T02:34:30.265Z,17.32
2019-05-28T02:35:35.379Z,17.30
2019-05-28T02:36:40.929Z,17.30
2019-05-28T02:37:46.095Z,17.28
2019-05-28T02:38:51.601Z,17.25
2019-05-28T02:39:56.747Z,17.24
2019-05-28T02:41:02.374Z,17.21
2019-05-28T02:42:07.440Z,17.22
2019-05-28T02:43:13.055Z,17.22
2019-05-28T02:44:18.111Z,17.25
2019-05-28T02:45:23.959Z,17.26
2019-05-28T02:46:28.941Z,17.27
2019-05-28T02:47:34.734Z,17.27
2019-05-28T02:48:39.747Z,17.27
2019-05-28T02:49:45.227Z,17.26
2019-05-28T02:51:03.534Z,17.26
2019-05-28T02:52:10.049Z,17.26
2019-05-28T02:53:15.108Z,17.22
2019-05-28T02:54:20.865Z,17.20
2019-05-28T02:55:26.164Z,17.18
2019-05-28T02:56:32.915Z,17.15
2019-05-28T02:57:39.687Z,17.11
2019-05-28T02:58:48.467Z,17.08
2019-05-28T02:59:55.638Z,17.01
2019-05-28T03:01:02.495Z,16.96
2019-05-28T03:02:07.558Z,16.94
2019-05-28T03:03:15.263Z,16.91
2019-05-28T03:04:23.641Z,16.90
2019-05-28T03:05:30.600Z,16.87
2019-05-28T03:06:39.181Z,16.85
2019-05-28T03:07:46.678Z,16.81
2019-05-28T03:08:55.026Z,16.76
2019-05-28T03:10:03.369Z,16.72
2019-05-28T03:11:08.493Z,16.70
2019-05-28T03:12:14.761Z,16.68
2019-05-28T03:13:19.683Z,16.65
2019-05-28T03:14:25.523Z,16.63
2019-05-28T03:15:30.801Z,16.63
2019-05-28T03:16:39.801Z,16.63
2019-05-28T03:17:47.461Z,16.63
2019-05-28T03:18:54.168Z,16.64
2019-05-28T03:20:02.143Z,16.64
2019-05-28T03:21:08.681Z,16.67
2019-05-28T03:22:15.850Z,16.64
2019-05-28T03:23:22.036Z,16.66
2019-05-28T03:24:29.307Z,16.67
2019-05-28T03:25:37.397Z,16.69
2019-05-28T03:26:42.490Z,16.70
2019-05-28T03:27:47.992Z,16.72
2019-05-28T03:28:52.994Z,16.75
2019-05-28T03:29:58.639Z,16.78
2019-05-28T03:31:07.159Z,16.80
2019-05-28T03:32:12.985Z,16.83
2019-05-28T03:33:18.220Z,16.85
2019-05-28T03:34:23.943Z,16.86
2019-05-28T03:35:29.515Z,16.87
2019-05-28T03:36:36.005Z,16.87
2019-05-28T03:37:42.624Z,16.85
2019-05-28T03:38:48.487Z,16.84
2019-05-28T03:39:55.341Z,16.82
2019-05-28T03:41:00.918Z,16.81
2019-05-28T03:42:05.902Z,16.80
2019-05-28T03:43:11.479Z,16.79
2019-05-28T03:44:16.404Z,16.78
2019-05-28T03:45:22.040Z,16.78
2019-05-28T03:46:27.088Z,16.77
2019-05-28T03:47:32.590Z,16.76
2019-05-28T03:48:37.519Z,16.75
2019-05-28T03:49:43.054Z,16.74
2019-05-28T03:50:48.043Z,16.74
2019-05-28T03:51:53.630Z,16.72
2019-05-28T03:52:58.564Z,16.73
2019-05-28T03:54:04.210Z,16.74
2019-05-28T03:55:09.275Z,16.73
2019-05-28T03:56:15.196Z,16.73
2019-05-28T03:57:20.536Z,16.72
2019-05-28T03:58:26.046Z,16.72
2019-05-28T03:59:31.022Z,16.71
2019-05-28T04:00:36.735Z,16.70
2019-05-28T04:01:41.760Z,16.68
2019-05-28T04:02:47.261Z,16.66
2019-05-28T04:03:55.337Z,16.64
2019-05-28T04:05:00.885Z,16.62
2019-05-28T04:06:06.021Z,16.60
2019-05-28T04:07:12.468Z,16.59
2019-05-28T04:08:17.632Z,16.58
2019-05-28T04:09:23.198Z,16.57
2019-05-28T04:10:28.459Z,16.56
2019-05-28T04:11:44.438Z,16.57
2019-05-28T04:12:40.929Z,16.57
2019-05-28T04:13:46.437Z,16.56
2019-05-28T04:14:51.406Z,16.57
2019-05-28T04:15:56.897Z,16.57
2019-05-28T04:17:01.842Z,16.55
2019-05-28T04:18:07.547Z,16.53
2019-05-28T04:19:12.519Z,16.53
2019-05-28T04:20:18.287Z,16.52
2019-05-28T04:21:23.333Z,16.52
2019-05-28T04:22:28.837Z,16.52
2019-05-28T04:23:33.763Z,16.54
2019-05-28T04:24:39.350Z,16.55
2019-05-28T04:25:45.508Z,16.55
2019-05-28T04:26:51.046Z,16.56
2019-05-28T04:27:56.224Z,16.57
2019-05-28T04:29:02.006Z,16.57
2019-05-28T04:30:07.206Z,16.60
2019-05-28T04:31:12.784Z,16.60
2019-05-28T04:32:18.012Z,16.62
2019-05-28T04:33:23.817Z,16.65
2019-05-28T04:34:28.786Z,16.65
2019-05-28T04:35:34.649Z,16.66
2019-05-28T04:36:40.148Z,16.65
2019-05-28T04:37:46.154Z,16.68
2019-05-28T04:38:51.112Z,16.68
2019-05-28T04:39:57.021Z,16.68
2019-05-28T04:41:01.933Z,16.69
2019-05-28T04:42:07.503Z,16.70
2019-05-28T04:43:12.560Z,16.70
2019-05-28T04:44:18.140Z,16.70
2019-05-28T04:45:23.475Z,16.71
2019-05-28T04:46:29.070Z,16.72
2019-05-28T04:47:33.976Z,16.72
2019-05-28T04:48:39.586Z,16.75
2019-05-28T04:49:44.856Z,16.76
2019-05-28T04:50:52.707Z,16.77
2019-05-28T04:51:57.617Z,16.79
2019-05-28T04:53:03.152Z,16.79
2019-05-28T04:54:08.127Z,16.79
2019-05-28T04:55:14.022Z,16.79
2019-05-28T04:56:19.024Z,16.79
2019-05-28T04:57:24.807Z,16.78
2019-05-28T04:58:29.860Z,16.77
2019-05-28T04:59:35.351Z,16.77
2019-05-28T05:00:40.624Z,16.76
2019-05-28T05:01:46.168Z,16.74
2019-05-28T05:02:59.294Z,16.73
2019-05-28T05:03:58.513Z,16.73
2019-05-28T05:05:03.750Z,16.72
2019-05-28T05:06:09.361Z,16.72
2019-05-28T05:07:14.560Z,16.71
2019-05-28T05:08:20.238Z,16.70
2019-05-28T05:09:25.669Z,16.70
2019-05-28T05:10:31.331Z,16.69
2019-05-28T05:11:36.288Z,16.70
2019-05-28T05:12:41.847Z,16.69
2019-05-28T05:13:47.665Z,16.71
2019-05-28T05:14:53.277Z,16.71
2019-05-28T05:15:58.243Z,16.71
2019-05-28T05:17:03.828Z,16.73
2019-05-28T05:18:08.986Z,16.74
2019-05-28T05:19:14.572Z,16.75
2019-05-28T05:20:19.587Z,16.79
2019-05-28T05:21:25.147Z,16.81
2019-05-28T05:22:30.094Z,16.83
2019-05-28T05:23:35.606Z,16.85
2019-05-28T05:24:40.610Z,16.89
2019-05-28T05:25:46.648Z,16.90
2019-05-28T05:26:53.081Z,16.93
2019-05-28T05:27:58.616Z,16.93
2019-05-28T05:29:03.655Z,16.94
2019-05-28T05:30:09.301Z,16.95
2019-05-28T05:31:14.310Z,16.98
2019-05-28T05:32:19.907Z,16.96
2019-05-28T05:33:24.895Z,16.95
2019-05-28T05:34:30.731Z,16.95
2019-05-28T05:35:35.836Z,16.94
2019-05-28T05:36:41.480Z,16.92
2019-05-28T05:37:46.451Z,16.91
2019-05-28T05:38:52.022Z,16.89
2019-05-28T05:39:57.040Z,16.88
2019-05-28T05:41:02.563Z,16.87
2019-05-28T05:42:07.629Z,16.87
2019-05-28T05:43:13.298Z,16.88
2019-05-28T05:44:18.347Z,16.89
2019-05-28T05:45:24.163Z,16.90
2019-05-28T05:46:29.187Z,16.90
2019-05-28T05:47:34.891Z,16.90
2019-05-28T05:48:39.958Z,16.88
2019-05-28T05:49:45.608Z,16.88
2019-05-28T05:50:50.713Z,16.88
2019-05-28T05:51:56.240Z,16.90
2019-05-28T05:53:01.227Z,16.94
2019-05-28T05:54:07.041Z,16.96
2019-05-28T05:55:12.580Z,16.99
2019-05-28T05:56:18.300Z,17.00
2019-05-28T05:57:23.478Z,17.01
2019-05-28T05:58:29.066Z,17.01
2019-05-28T05:59:34.072Z,17.02
2019-05-28T06:00:39.822Z,17.04
2019-05-28T06:01:44.891Z,17.08
2019-05-28T06:02:50.395Z,17.10
2019-05-28T06:03:55.610Z,17.12
2019-05-28T06:05:01.398Z,17.13
2019-05-28T06:06:06.418Z,17.13
2019-05-28T06:07:12.090Z,17.12
2019-05-28T06:08:17.164Z,17.12
2019-05-28T06:09:23.215Z,17.11
2019-05-28T06:10:28.437Z,17.10
2019-05-28T06:11:34.042Z,17.09
2019-05-28T06:12:39.254Z,17.09
2019-05-28T06:13:45.057Z,17.09
2019-05-28T06:14:50.143Z,17.08
2019-05-28T06:15:55.788Z,17.09
2019-05-28T06:17:00.824Z,17.09
2019-05-28T06:18:06.625Z,17.06
2019-05-28T06:19:11.574Z,17.04
2019-05-28T06:20:17.302Z,17.03
2019-05-28T06:21:22.381Z,17.02
2019-05-28T06:22:27.922Z,17.02
2019-05-28T06:23:33.038Z,17.02
2019-05-28T06:24:38.776Z,17.00
2019-05-28T06:25:43.824Z,17.00
2019-05-28T06:26:49.391Z,17.00
2019-05-28T06:27:54.458Z,17.02
2019-05-28T06:28:59.979Z,17.02
2019-05-28T06:30:06.092Z,17.03
2019-05-28T06:31:12.059Z,17.03
2019-05-28T06:32:17.014Z,17.02
2019-05-28T06:33:22.549Z,17.03
2019-05-28T06:34:27.566Z,17.04
2019-05-28T06:35:33.117Z,17.06
2019-05-28T06:36:38.281Z,17.10
2019-05-28T06:37:43.848Z,17.14
2019-05-28T06:38:48.791Z,17.15
2019-05-28T06:39:54.570Z,17.18
2019-05-28T06:40:59.789Z,17.22
2019-05-28T06:42:05.504Z,17.24
2019-05-28T06:43:10.499Z,17.25
2019-05-28T06:44:16.260Z,17.27
2019-05-28T06:45:21.600Z,17.27
2019-05-28T06:46:27.236Z,17.25
2019-05-28T06:47:32.324Z,17.24
2019-05-28T06:48:37.880Z,17.25
2019-05-28T06:49:42.930Z,17.24
2019-05-28T06:50:48.545Z,17.23
2019-05-28T06:51:53.568Z,17.21
2019-05-28T06:52:59.160Z,17.19
2019-05-28T06:54:04.184Z,17.17
2019-05-28T06:55:10.260Z,17.17
2019-05-28T06:56:15.265Z,17.21
2019-05-28T06:57:23.219Z,17.21
2019-05-28T06:58:38.643Z,17.22
2019-05-28T06:59:35.049Z,17.23
2019-05-28T07:00:40.122Z,17.24
2019-05-28T07:01:45.760Z,17.26
2019-05-28T07:02:50.860Z,17.27
2019-05-28T07:04:12.758Z,17.32
2019-05-28T07:05:03.657Z,17.34
2019-05-28T07:06:09.152Z,17.36
2019-05-28T07:07:14.288Z,17.38
2019-05-28T07:08:20.080Z,17.41
2019-05-28T07:09:25.019Z,17.43
2019-05-28T07:10:30.632Z,17.44
2019-05-28T07:11:35.567Z,17.46
2019-05-28T07:12:41.264Z,17.49
2019-05-28T07:13:46.241Z,17.50
2019-05-28T07:14:51.815Z,17.50
2019-05-28T07:15:56.950Z,17.51
2019-05-28T07:17:02.514Z,17.52
2019-05-28T07:18:07.741Z,17.53
2019-05-28T07:19:23.983Z,17.55
2019-05-28T07:20:20.059Z,17.58
2019-05-28T07:21:25.680Z,17.60
2019-05-28T07:22:30.715Z,17.62
2019-05-28T07:23:36.285Z,17.64
2019-05-28T07:24:41.618Z,17.67
2019-05-28T07:25:47.166Z,17.72
2019-05-28T07:26:52.665Z,17.75
2019-05-28T07:28:10.413Z,17.75
2019-05-28T07:29:05.389Z,17.77
2019-05-28T07:30:11.357Z,17.77
2019-05-28T07:31:16.506Z,17.77
2019-05-28T07:32:22.453Z,17.79
2019-05-28T07:33:27.464Z,17.82
2019-05-28T07:34:33.258Z,17.88
2019-05-28T07:35:45.636Z,17.92
2019-05-28T07:36:45.586Z,17.97
2019-05-28T07:37:50.571Z,18.00
2019-05-28T07:38:56.263Z,18.02
2019-05-28T07:40:01.614Z,18.04
2019-05-28T07:41:07.207Z,18.04
2019-05-28T07:42:12.167Z,18.03
2019-05-28T07:43:18.013Z,18.01
2019-05-28T07:44:23.032Z,17.99
2019-05-28T07:45:28.585Z,17.98
2019-05-28T07:46:33.543Z,17.98
2019-05-28T07:47:39.349Z,17.96
2019-05-28T07:48:44.657Z,17.95
2019-05-28T07:49:50.525Z,17.93
2019-05-28T07:52:10.007Z,17.90
2019-05-28T07:53:15.656Z,17.83
2019-05-28T07:54:39.826Z,17.82
2019-05-28T07:56:03.811Z,17.83
2019-05-28T07:57:27.988Z,17.85
2019-05-28T07:59:11.412Z,17.86
2019-05-28T08:02:01.030Z,17.89
2019-05-28T08:03:46.037Z,17.91
2019-05-28T08:06:35.225Z,17.98
2019-05-28T08:07:59.306Z,18.06
2019-05-28T08:09:42.810Z,18.07
2019-05-28T08:12:31.817Z,18.09
2019-05-28T08:13:56.166Z,18.09
2019-05-28T08:15:01.190Z,18.11
2019-05-28T08:17:50.287Z,18.15
2019-05-28T08:19:15.008Z,18.18
2019-05-28T08:20:20.007Z,18.20
2019-05-28T08:21:25.954Z,18.23
2019-05-28T08:23:55.633Z,18.29
2019-05-28T08:25:27.777Z,18.37
2019-05-28T08:30:18.481Z,18.72
2019-05-28T08:31:42.481Z,18.81
2019-05-28T08:33:06.485Z,18.87
2019-05-28T08:34:30.627Z,18.90
2019-05-28T08:35:54.611Z,18.95
2019-05-28T08:37:18.953Z,19.00
2019-05-28T08:38:42.978Z,18.97
2019-05-28T08:40:07.162Z,18.94
2019-05-28T08:41:31.896Z,18.94
2019-05-28T08:42:36.823Z,18.96
2019-05-28T08:43:42.627Z,18.98
2019-05-28T08:45:06.643Z,19.02
2019-05-28T08:46:30.748Z,19.05
2019-05-28T08:47:36.023Z,19.10
2019-05-28T08:49:00.108Z,19.16
2019-05-28T08:50:44.771Z,19.20
2019-05-28T08:53:14.810Z,19.34
2019-05-28T08:54:20.139Z,19.36
2019-05-28T08:55:25.760Z,19.37
2019-05-28T08:56:49.918Z,19.39
2019-05-28T08:58:14.631Z,19.39
2019-05-28T08:59:38.794Z,19.46
2019-05-28T09:01:23.427Z,19.50
2019-05-28T09:02:29.067Z,19.50
2019-05-28T09:06:04.426Z,19.57
2019-05-28T09:07:28.455Z,19.63
2019-05-28T09:08:39.303Z,19.68
2019-05-28T09:10:00.121Z,19.75
2019-05-28T09:11:24.216Z,19.82
2019-05-28T09:14:12.959Z,19.98
2019-05-28T09:15:18.474Z,20.07
2019-05-28T09:16:42.618Z,20.11
2019-05-28T09:18:06.695Z,20.13
2019-05-28T09:19:12.262Z,20.12
2019-05-28T09:20:36.364Z,20.11
2019-05-28T09:21:41.436Z,20.11
2019-05-28T09:24:11.106Z,20.20
2019-05-28T09:25:16.685Z,20.35
2019-05-28T09:26:21.893Z,20.43
2019-05-28T09:27:27.791Z,20.53
2019-05-28T09:28:32.735Z,20.60
2019-05-28T09:29:57.455Z,20.60
2019-05-28T09:31:21.632Z,20.60
2019-05-28T09:35:44.701Z,20.68
2019-05-28T09:37:07.624Z,20.78
2019-05-28T09:38:12.782Z,20.84
2019-05-28T09:39:36.836Z,20.82
2019-05-28T09:42:45.493Z,20.75
2019-05-28T09:43:51.103Z,20.57
2019-05-28T09:45:22.504Z,20.39
2019-05-28T09:48:06.373Z,20.14
2019-05-28T09:49:30.541Z,19.97
2019-05-28T09:50:54.526Z,19.85
2019-05-28T09:51:59.821Z,19.70
2019-05-28T09:53:44.414Z,19.57
2019-05-28T09:54:49.683Z,19.48
2019-05-28T09:56:13.676Z,19.33
2019-05-28T09:57:46.859Z,19.19
2019-05-28T09:59:04.465Z,18.93
2019-05-28T10:00:58.027Z,18.51
2019-05-28T10:02:34.871Z,18.29
2019-05-28T10:03:39.822Z,17.84
2019-05-28T10:06:55.664Z,17.29
2019-05-28T10:08:01.221Z,17.05
2019-05-28T10:09:46.731Z,16.96
2019-05-28T10:10:51.958Z,16.85
2019-05-28T10:11:57.539Z,16.64
2019-05-28T10:13:37.214Z,16.50
2019-05-28T10:15:07.247Z,16.32
2019-05-28T10:16:31.221Z,16.06
2019-05-28T10:19:00.812Z,15.81
2019-05-28T10:20:45.853Z,15.75
2019-05-28T10:23:15.614Z,15.64
2019-05-28T10:24:20.552Z,15.57
2019-05-28T10:25:26.076Z,15.54
2019-05-28T10:26:50.226Z,15.53
2019-05-28T10:28:01.456Z,15.55
2019-05-28T10:30:47.684Z,15.68
2019-05-28T10:32:11.914Z,15.78
2019-05-28T10:33:17.530Z,15.87
2019-05-28T10:34:22.513Z,16.01
2019-05-28T10:36:07.128Z,16.11
2019-05-28T10:37:12.606Z,16.21
2019-05-28T10:38:36.689Z,16.34
2019-05-28T10:39:42.132Z,16.43
2019-05-28T10:40:47.828Z,16.56
2019-05-28T10:42:31.352Z,16.67
2019-05-28T10:43:56.097Z,16.76
2019-05-28T10:45:01.137Z,16.86
2019-05-28T10:46:25.848Z,16.98
2019-05-28T10:47:30.844Z,17.07
2019-05-28T10:48:36.766Z,17.13
2019-05-28T10:51:06.524Z,17.28
2019-05-28T10:52:30.750Z,17.39
2019-05-28T10:53:36.508Z,17.47
2019-05-28T10:55:02.786Z,17.58
2019-05-28T10:57:52.499Z,17.82
2019-05-28T10:58:57.871Z,17.95
2019-05-28T11:00:22.588Z,18.01
2019-05-28T11:01:27.604Z,18.03
2019-05-28T11:02:51.555Z,18.06
2019-05-28T11:07:29.886Z,18.29
2019-05-28T11:08:54.582Z,18.35
2019-05-28T11:10:24.348Z,18.40
2019-05-28T11:11:45.686Z,18.46
2019-05-28T11:12:50.632Z,18.61
2019-05-28T11:13:56.320Z,18.69
2019-05-28T11:16:01.961Z,18.75
2019-05-28T11:17:07.020Z,18.84
2019-05-28T11:18:31.858Z,18.93
2019-05-28T11:19:55.928Z,18.99
2019-05-28T11:21:01.097Z,19.01
2019-05-28T11:22:26.005Z,19.01
2019-05-28T11:23:50.040Z,18.99
2019-05-28T11:24:54.980Z,19.00
2019-05-28T11:26:19.739Z,18.99
2019-05-28T11:29:07.987Z,18.97
2019-05-28T11:30:52.614Z,18.96
2019-05-28T11:31:57.673Z,18.99
2019-05-28T11:33:21.745Z,19.01
2019-05-28T11:34:45.840Z,19.02
2019-05-28T11:36:10.607Z,19.07
2019-05-28T11:38:59.138Z,19.18
2019-05-28T11:40:43.775Z,19.23
2019-05-28T11:41:48.688Z,19.32
2019-05-28T11:42:54.638Z,19.44
2019-05-28T11:43:59.674Z,19.46
2019-05-28T11:45:44.362Z,19.51
2019-05-28T11:47:27.936Z,19.55
2019-05-28T11:48:33.420Z,19.65
2019-05-28T11:51:02.985Z,19.68
2019-05-28T11:52:07.936Z,19.70
2019-05-28T11:53:13.454Z,19.74
2019-05-28T11:54:20.172Z,19.81
2019-05-28T11:56:05.043Z,19.85
2019-05-28T11:57:10.014Z,19.85
2019-05-28T11:58:34.712Z,19.87
2019-05-28T12:01:34.268Z,19.98
2019-05-28T12:03:13.840Z,19.91
2019-05-28T12:04:38.872Z,19.93
2019-05-28T12:06:02.992Z,19.90
2019-05-28T12:07:08.090Z,19.88
2019-05-28T12:08:13.584Z,19.84
2019-05-28T12:09:37.600Z,19.81
2019-05-28T12:10:42.733Z,19.82
2019-05-28T12:12:09.665Z,19.81
2019-05-28T12:13:14.741Z,19.74
2019-05-28T12:16:03.736Z,19.76
2019-05-28T12:17:09.589Z,19.77
2019-05-28T12:18:14.546Z,19.75
2019-05-28T12:19:39.595Z,19.67
2019-05-28T12:21:03.752Z,19.63
2019-05-28T12:23:39.501Z,19.62
2019-05-28T12:24:44.999Z,19.57
2019-05-28T12:25:50.042Z,19.51
2019-05-28T12:26:55.723Z,19.48
2019-05-28T12:28:00.725Z,19.46
2019-05-28T12:29:51.963Z,19.49
2019-05-28T12:31:30.803Z,19.51
2019-05-28T12:32:36.517Z,19.39
2019-05-28T12:34:00.545Z,19.29
2019-05-28T12:35:45.573Z,19.25
2019-05-28T12:36:50.586Z,19.20
2019-05-28T12:37:56.102Z,19.13
2019-05-28T12:39:01.208Z,19.06
2019-05-28T12:40:48.236Z,19.00
2019-05-28T12:42:31.041Z,18.97
2019-05-28T12:43:36.619Z,18.93
2019-05-28T12:44:42.833Z,18.95
2019-05-28T12:46:27.156Z,19.02
2019-05-28T12:47:32.823Z,19.05
2019-05-28T12:48:37.837Z,19.07
2019-05-28T12:52:32.272Z,19.18
2019-05-28T12:53:49.509Z,19.24
2019-05-28T12:56:53.818Z,19.22
2019-05-28T12:57:59.754Z,19.16
2019-05-28T12:59:44.286Z,19.16
2019-05-28T13:01:08.406Z,19.15
2019-05-28T13:02:14.275Z,19.17
2019-05-28T13:03:39.251Z,19.23
2019-05-28T13:05:44.990Z,19.28
2019-05-28T13:07:09.351Z,19.32
2019-05-28T13:10:36.037Z,19.21
2019-05-28T13:11:41.552Z,19.15
2019-05-28T13:13:05.792Z,19.11
2019-05-28T13:14:32.457Z,19.11
2019-05-28T13:15:41.980Z,19.15
2019-05-28T13:17:22.906Z,19.18
2019-05-28T13:18:27.913Z,19.22
2019-05-28T13:19:33.852Z,19.20
2019-05-28T13:20:57.885Z,19.18
2019-05-28T13:23:27.454Z,19.14
2019-05-28T13:24:32.622Z,19.14
2019-05-28T13:25:38.119Z,19.17
2019-05-28T13:27:17.695Z,19.18
2019-05-28T13:28:29.281Z,19.18
2019-05-28T13:29:34.477Z,19.20
2019-05-28T13:31:19.074Z,19.20
2019-05-28T13:32:43.908Z,19.18
2019-05-28T13:34:09.681Z,19.17
2019-05-28T13:35:54.380Z,19.13
2019-05-28T13:36:59.333Z,19.09
2019-05-28T13:40:13.884Z,19.03
2019-05-28T13:41:19.284Z,19.05
2019-05-28T13:42:24.903Z,19.04
2019-05-28T13:43:29.853Z,19.05
2019-05-28T13:44:35.366Z,19.09
2019-05-28T13:45:40.772Z,19.14
2019-05-28T13:46:46.453Z,19.20
2019-05-28T13:48:10.546Z,19.24
2019-05-28T13:51:05.841Z,19.28
2019-05-28T13:52:12.703Z,19.27
2019-05-28T13:53:57.006Z,19.23
2019-05-28T13:55:02.531Z,19.21
2019-05-28T13:56:26.973Z,19.19
2019-05-28T13:57:51.251Z,19.16
2019-05-28T13:58:56.224Z,19.11
2019-05-28T14:00:01.771Z,19.10
2019-05-28T14:02:49.855Z,18.97
2019-05-28T14:04:14.000Z,18.90
2019-05-28T14:05:58.573Z,18.85
2019-05-28T14:07:03.861Z,18.81
2019-05-28T14:08:44.805Z,18.77
2019-05-28T14:09:54.207Z,18.77
2019-05-28T14:11:18.964Z,18.77
2019-05-28T14:12:24.295Z,18.78
2019-05-28T14:13:49.331Z,18.78
2019-05-28T14:14:54.671Z,18.77
2019-05-28T14:17:44.187Z,18.83
2019-05-28T14:19:48.194Z,18.88
2019-05-28T14:20:53.247Z,18.91
2019-05-28T14:21:58.855Z,18.87
2019-05-28T14:24:48.237Z,18.89
2019-05-28T14:25:53.738Z,18.94
2019-05-28T14:28:23.336Z,18.97
2019-05-28T14:29:47.361Z,18.95
2019-05-28T14:31:00.038Z,18.96
2019-05-28T14:32:19.208Z,18.96
2019-05-28T14:33:24.295Z,18.93
2019-05-28T14:34:29.886Z,18.87
2019-05-28T14:35:54.342Z,18.80
2019-05-28T14:36:59.960Z,18.75
2019-05-28T14:38:05.138Z,18.68
2019-05-28T14:39:10.980Z,18.61
2019-05-28T14:40:55.833Z,18.59
2019-05-28T14:43:52.367Z,18.56
2019-05-28T14:45:16.427Z,18.55
2019-05-28T14:46:40.445Z,18.52
2019-05-28T14:48:04.624Z,18.48
2019-05-28T14:51:13.765Z,18.31
2019-05-28T14:53:17.717Z,18.23
2019-05-28T14:54:22.724Z,18.19
2019-05-28T14:55:28.821Z,18.19
2019-05-28T14:56:34.305Z,18.18
2019-05-28T14:57:39.961Z,18.18
2019-05-28T14:59:04.311Z,18.18
2019-05-28T15:00:48.955Z,18.20
2019-05-28T15:02:13.533Z,18.22
2019-05-28T15:03:19.087Z,18.25
2019-05-28T15:04:24.664Z,18.30
2019-05-28T15:05:48.762Z,18.34
2019-05-28T15:07:12.940Z,18.39
2019-05-28T15:08:18.482Z,18.40
2019-05-28T15:09:23.825Z,18.38
2019-05-28T15:10:29.463Z,18.39
2019-05-28T15:11:34.457Z,18.41
2019-05-28T15:13:19.074Z,18.44
2019-05-28T15:14:43.149Z,18.47
2019-05-28T15:16:07.365Z,18.50
2019-05-28T15:17:13.280Z,18.55
2019-05-28T15:18:18.317Z,18.61
2019-05-28T15:19:23.824Z,18.64
2019-05-28T15:20:28.857Z,18.68
2019-05-28T15:21:53.263Z,18.75
2019-05-28T15:22:58.447Z,18.79
2019-05-28T15:24:23.501Z,18.81
2019-05-28T15:25:28.644Z,18.84
2019-05-28T15:27:12.139Z,18.85
2019-05-28T15:28:36.123Z,18.82
2019-05-28T15:30:00.291Z,18.79
2019-05-28T15:31:05.406Z,18.78
2019-05-28T15:32:30.106Z,18.78
2019-05-28T15:33:35.209Z,18.77
2019-05-28T15:34:41.007Z,18.73
2019-05-28T15:36:05.236Z,18.69
2019-05-28T15:37:11.390Z,18.67
2019-05-28T15:38:35.543Z,18.65
2019-05-28T15:41:24.239Z,18.64
2019-05-28T15:42:29.220Z,18.60
2019-05-28T15:43:53.906Z,18.56
2019-05-28T15:44:58.887Z,18.50
2019-05-28T15:46:24.104Z,18.40
2019-05-28T15:47:48.324Z,18.32
2019-05-28T15:48:54.100Z,18.22
2019-05-28T15:49:59.083Z,18.13
2019-05-28T15:51:23.081Z,18.06
2019-05-28T15:52:28.050Z,18.00
2019-05-28T15:54:57.822Z,17.86
2019-05-28T15:56:22.650Z,17.76
2019-05-28T15:57:27.600Z,17.68
2019-05-28T15:58:52.525Z,17.64
2019-05-28T16:00:16.763Z,17.60
2019-05-28T16:01:22.379Z,17.57
2019-05-28T16:03:51.854Z,17.53
2019-05-28T16:04:56.883Z,17.53
2019-05-28T16:06:02.711Z,17.53
2019-05-28T16:07:26.667Z,17.54
2019-05-28T16:08:31.932Z,17.55
2019-05-28T16:11:22.255Z,17.63
2019-05-28T16:13:51.802Z,17.69
2019-05-28T16:14:57.078Z,17.70
2019-05-28T16:16:21.162Z,17.71
2019-05-28T16:17:45.158Z,17.75
2019-05-28T16:19:09.295Z,17.77
2019-05-28T16:20:53.947Z,17.82
2019-05-28T16:21:58.966Z,17.84
2019-05-28T16:23:22.966Z,17.88
2019-05-28T16:24:46.965Z,17.90
2019-05-28T16:25:52.179Z,17.90
2019-05-28T16:27:16.878Z,17.89
2019-05-28T16:28:41.012Z,17.88
2019-05-28T16:30:05.555Z,17.87
2019-05-28T16:31:30.344Z,17.86